sensor_id;sensor_type;location;lat;lon;timestamp;P1;durP1;ratioP1;P2;durP2;ratioP2
4857;SDS011;58975;51.978;8.472;2023-11-19T00:03:46;2.00;;;1.80;;
4857;SDS011;58975;51.978;8.472;2023-11-19T00:08:45;1.75;;;1.35;;
4857;SDS011;58975;51.978;8.472;2023-11-19T00:13:42;5.18;;;1.58;;
4857;SDS011;58975;51.978;8.472;2023-11-19T00:18:38;2.22;;;2.00;;
4857;SDS011;58975;51.978;8.472;2023-11-19T00:23:35;4.20;;;1.63;;
4857;SDS011;58975;51.978;8.472;2023-11-19T00:28:32;3.53;;;1.30;;
4857;SDS011;58975;51.978;8.472;2023-11-19T00:33:30;2.23;;;1.67;;
4857;SDS011;58975;51.978;8.472;2023-11-19T00:38:27;3.13;;;1.70;;
4857;SDS011;58975;51.978;8.472;2023-11-19T00:43:23;1.77;;;1.67;;
4857;SDS011;58975;51.978;8.472;2023-11-19T00:48:20;1.63;;;1.50;;
4857;SDS011;58975;51.978;8.472;2023-11-19T00:53:16;3.78;;;1.70;;
4857;SDS011;58975;51.978;8.472;2023-11-19T00:58:13;2.13;;;1.83;;
4857;SDS011;58975;51.978;8.472;2023-11-19T01:03:09;2.28;;;1.95;;
4857;SDS011;58975;51.978;8.472;2023-11-19T01:08:06;6.43;;;2.60;;
4857;SDS011;58975;51.978;8.472;2023-11-19T01:13:02;4.30;;;2.50;;
4857;SDS011;58975;51.978;8.472;2023-11-19T01:18:02;3.15;;;2.63;;
4857;SDS011;58975;51.978;8.472;2023-11-19T01:23:01;4.38;;;2.60;;
4857;SDS011;58975;51.978;8.472;2023-11-19T01:27:57;7.68;;;3.58;;
4857;SDS011;58975;51.978;8.472;2023-11-19T01:32:54;7.38;;;3.65;;
4857;SDS011;58975;51.978;8.472;2023-11-19T01:37:52;10.75;;;5.05;;
4857;SDS011;58975;51.978;8.472;2023-11-19T01:42:48;13.05;;;5.45;;
4857;SDS011;58975;51.978;8.472;2023-11-19T01:47:45;17.40;;;6.97;;
4857;SDS011;58975;51.978;8.472;2023-11-19T01:52:42;10.23;;;5.47;;
4857;SDS011;58975;51.978;8.472;2023-11-19T01:57:39;6.95;;;4.60;;
4857;SDS011;58975;51.978;8.472;2023-11-19T02:02:37;5.95;;;3.42;;
4857;SDS011;58975;51.978;8.472;2023-11-19T02:07:36;4.97;;;3.15;;
4857;SDS011;58975;51.978;8.472;2023-11-19T02:12:33;6.72;;;3.30;;
4857;SDS011;58975;51.978;8.472;2023-11-19T02:17:32;4.05;;;3.20;;
4857;SDS011;58975;51.978;8.472;2023-11-19T02:22:30;3.10;;;2.80;;
4857;SDS011;58975;51.978;8.472;2023-11-19T02:32:41;5.10;;;4.30;;
4857;SDS011;58975;51.978;8.472;2023-11-19T02:37:38;10.50;;;5.70;;
4857;SDS011;58975;51.978;8.472;2023-11-19T02:42:35;11.63;;;5.55;;
4857;SDS011;58975;51.978;8.472;2023-11-19T02:47:32;12.35;;;5.82;;
4857;SDS011;58975;51.978;8.472;2023-11-19T02:52:29;11.38;;;6.28;;
4857;SDS011;58975;51.978;8.472;2023-11-19T02:57:30;13.50;;;7.28;;
4857;SDS011;58975;51.978;8.472;2023-11-19T03:02:27;19.95;;;9.05;;
4857;SDS011;58975;51.978;8.472;2023-11-19T03:07:30;19.15;;;8.50;;
4857;SDS011;58975;51.978;8.472;2023-11-19T03:12:26;16.80;;;8.20;;
4857;SDS011;58975;51.978;8.472;2023-11-19T03:17:23;20.92;;;10.85;;
4857;SDS011;58975;51.978;8.472;2023-11-19T03:22:20;14.68;;;8.57;;
4857;SDS011;58975;51.978;8.472;2023-11-19T03:27:17;15.70;;;8.90;;
4857;SDS011;58975;51.978;8.472;2023-11-19T03:32:13;14.88;;;9.98;;
4857;SDS011;58975;51.978;8.472;2023-11-19T03:37:10;19.35;;;10.15;;
4857;SDS011;58975;51.978;8.472;2023-11-19T03:42:07;19.75;;;11.27;;
4857;SDS011;58975;51.978;8.472;2023-11-19T03:47:03;19.27;;;11.38;;
4857;SDS011;58975;51.978;8.472;2023-11-19T03:52:00;18.45;;;11.35;;
4857;SDS011;58975;51.978;8.472;2023-11-19T03:56:57;18.52;;;11.38;;
4857;SDS011;58975;51.978;8.472;2023-11-19T04:01:53;17.42;;;11.70;;
4857;SDS011;58975;51.978;8.472;2023-11-19T04:06:50;21.45;;;10.93;;
4857;SDS011;58975;51.978;8.472;2023-11-19T04:11:47;21.75;;;10.82;;
4857;SDS011;58975;51.978;8.472;2023-11-19T04:16:44;16.73;;;9.90;;
4857;SDS011;58975;51.978;8.472;2023-11-19T04:21:41;14.63;;;8.00;;
4857;SDS011;58975;51.978;8.472;2023-11-19T04:26:41;21.92;;;8.63;;
4857;SDS011;58975;51.978;8.472;2023-11-19T04:31:39;14.57;;;8.00;;
4857;SDS011;58975;51.978;8.472;2023-11-19T04:36:36;15.70;;;7.55;;
4857;SDS011;58975;51.978;8.472;2023-11-19T04:41:33;13.73;;;7.03;;
4857;SDS011;58975;51.978;8.472;2023-11-19T04:46:30;23.08;;;6.60;;
4857;SDS011;58975;51.978;8.472;2023-11-19T04:51:26;14.90;;;5.85;;
4857;SDS011;58975;51.978;8.472;2023-11-19T04:56:23;14.27;;;5.05;;
4857;SDS011;58975;51.978;8.472;2023-11-19T05:01:20;9.05;;;4.13;;
4857;SDS011;58975;51.978;8.472;2023-11-19T05:06:17;18.17;;;4.65;;
4857;SDS011;58975;51.978;8.472;2023-11-19T05:11:13;12.38;;;3.83;;
4857;SDS011;58975;51.978;8.472;2023-11-19T05:16:14;11.43;;;3.35;;
4857;SDS011;58975;51.978;8.472;2023-11-19T05:21:11;15.88;;;3.30;;
4857;SDS011;58975;51.978;8.472;2023-11-19T05:26:08;12.15;;;3.78;;
4857;SDS011;58975;51.978;8.472;2023-11-19T05:31:05;20.77;;;3.22;;
4857;SDS011;58975;51.978;8.472;2023-11-19T05:36:02;14.68;;;3.20;;
4857;SDS011;58975;51.978;8.472;2023-11-19T05:41:00;20.35;;;3.42;;
4857;SDS011;58975;51.978;8.472;2023-11-19T05:45:56;20.27;;;2.92;;
4857;SDS011;58975;51.978;8.472;2023-11-19T05:50:53;11.35;;;2.92;;
4857;SDS011;58975;51.978;8.472;2023-11-19T05:55:50;15.07;;;2.72;;
4857;SDS011;58975;51.978;8.472;2023-11-19T06:00:52;13.15;;;3.47;;
4857;SDS011;58975;51.978;8.472;2023-11-19T06:05:49;13.90;;;2.80;;
4857;SDS011;58975;51.978;8.472;2023-11-19T06:10:46;18.90;;;2.83;;
4857;SDS011;58975;51.978;8.472;2023-11-19T06:15:43;16.00;;;3.85;;
4857;SDS011;58975;51.978;8.472;2023-11-19T06:20:40;16.33;;;4.40;;
4857;SDS011;58975;51.978;8.472;2023-11-19T06:25:39;13.68;;;4.15;;
4857;SDS011;58975;51.978;8.472;2023-11-19T06:30:35;16.73;;;2.92;;
4857;SDS011;58975;51.978;8.472;2023-11-19T06:35:32;19.52;;;4.18;;
4857;SDS011;58975;51.978;8.472;2023-11-19T06:40:33;21.92;;;4.38;;
4857;SDS011;58975;51.978;8.472;2023-11-19T06:45:31;13.60;;;3.60;;
4857;SDS011;58975;51.978;8.472;2023-11-19T06:50:28;26.90;;;4.50;;
4857;SDS011;58975;51.978;8.472;2023-11-19T06:55:25;19.52;;;4.93;;
4857;SDS011;58975;51.978;8.472;2023-11-19T07:00:22;27.77;;;3.93;;
4857;SDS011;58975;51.978;8.472;2023-11-19T07:05:19;24.92;;;4.22;;
4857;SDS011;58975;51.978;8.472;2023-11-19T07:10:15;21.00;;;4.68;;
4857;SDS011;58975;51.978;8.472;2023-11-19T07:15:12;27.05;;;4.70;;
4857;SDS011;58975;51.978;8.472;2023-11-19T07:20:08;18.67;;;3.17;;
4857;SDS011;58975;51.978;8.472;2023-11-19T07:25:06;21.45;;;4.43;;
4857;SDS011;58975;51.978;8.472;2023-11-19T07:30:02;20.23;;;3.40;;
4857;SDS011;58975;51.978;8.472;2023-11-19T07:34:59;23.52;;;3.88;;
4857;SDS011;58975;51.978;8.472;2023-11-19T07:39:55;17.63;;;4.28;;
4857;SDS011;58975;51.978;8.472;2023-11-19T07:44:52;29.45;;;4.55;;
4857;SDS011;58975;51.978;8.472;2023-11-19T07:49:50;24.83;;;3.97;;
4857;SDS011;58975;51.978;8.472;2023-11-19T07:54:47;30.77;;;5.68;;
4857;SDS011;58975;51.978;8.472;2023-11-19T07:59:44;23.50;;;4.28;;
4857;SDS011;58975;51.978;8.472;2023-11-19T08:04:40;26.63;;;5.90;;
4857;SDS011;58975;51.978;8.472;2023-11-19T08:09:41;22.30;;;4.40;;
4857;SDS011;58975;51.978;8.472;2023-11-19T08:14:38;22.13;;;4.68;;
4857;SDS011;58975;51.978;8.472;2023-11-19T08:19:34;18.45;;;3.78;;
4857;SDS011;58975;51.978;8.472;2023-11-19T08:24:31;25.83;;;4.95;;
4857;SDS011;58975;51.978;8.472;2023-11-19T08:29:27;18.65;;;3.55;;
4857;SDS011;58975;51.978;8.472;2023-11-19T08:34:24;32.45;;;6.38;;
4857;SDS011;58975;51.978;8.472;2023-11-19T08:39:21;24.13;;;3.55;;
4857;SDS011;58975;51.978;8.472;2023-11-19T08:44:17;21.85;;;3.42;;
4857;SDS011;58975;51.978;8.472;2023-11-19T08:49:15;20.92;;;5.50;;
4857;SDS011;58975;51.978;8.472;2023-11-19T08:54:12;30.92;;;4.53;;
4857;SDS011;58975;51.978;8.472;2023-11-19T08:59:09;28.42;;;5.03;;
4857;SDS011;58975;51.978;8.472;2023-11-19T09:04:05;31.98;;;5.35;;
4857;SDS011;58975;51.978;8.472;2023-11-19T09:09:02;34.60;;;5.30;;
4857;SDS011;58975;51.978;8.472;2023-11-19T09:14:01;32.80;;;5.10;;
4857;SDS011;58975;51.978;8.472;2023-11-19T09:18:58;24.83;;;4.00;;
4857;SDS011;58975;51.978;8.472;2023-11-19T09:23:55;30.17;;;4.53;;
4857;SDS011;58975;51.978;8.472;2023-11-19T09:28:52;29.65;;;5.60;;
4857;SDS011;58975;51.978;8.472;2023-11-19T09:33:48;22.00;;;4.40;;
4857;SDS011;58975;51.978;8.472;2023-11-19T09:38:45;25.98;;;4.68;;
4857;SDS011;58975;51.978;8.472;2023-11-19T09:43:41;23.58;;;4.50;;
4857;SDS011;58975;51.978;8.472;2023-11-19T09:48:38;21.65;;;4.97;;
4857;SDS011;58975;51.978;8.472;2023-11-19T09:53:36;30.38;;;4.00;;
4857;SDS011;58975;51.978;8.472;2023-11-19T09:58:33;19.92;;;3.95;;
4857;SDS011;58975;51.978;8.472;2023-11-19T10:03:32;31.13;;;4.97;;
4857;SDS011;58975;51.978;8.472;2023-11-19T10:08:30;25.98;;;5.05;;
4857;SDS011;58975;51.978;8.472;2023-11-19T10:13:26;26.40;;;4.75;;
4857;SDS011;58975;51.978;8.472;2023-11-19T10:18:27;25.05;;;4.10;;
4857;SDS011;58975;51.978;8.472;2023-11-19T10:23:24;24.63;;;5.38;;
4857;SDS011;58975;51.978;8.472;2023-11-19T10:28:21;26.52;;;5.68;;
4857;SDS011;58975;51.978;8.472;2023-11-19T10:33:17;20.83;;;4.15;;
4857;SDS011;58975;51.978;8.472;2023-11-19T10:38:16;28.08;;;3.97;;
4857;SDS011;58975;51.978;8.472;2023-11-19T10:43:13;32.72;;;5.40;;
4857;SDS011;58975;51.978;8.472;2023-11-19T10:48:10;31.35;;;4.45;;
4857;SDS011;58975;51.978;8.472;2023-11-19T10:53:09;33.42;;;4.75;;
4857;SDS011;58975;51.978;8.472;2023-11-19T10:58:10;21.65;;;4.93;;
4857;SDS011;58975;51.978;8.472;2023-11-19T11:03:19;23.80;;;4.17;;
4857;SDS011;58975;51.978;8.472;2023-11-19T11:08:17;22.48;;;3.75;;
4857;SDS011;58975;51.978;8.472;2023-11-19T11:13:14;24.77;;;3.63;;
4857;SDS011;58975;51.978;8.472;2023-11-19T11:18:11;28.33;;;4.28;;
4857;SDS011;58975;51.978;8.472;2023-11-19T11:28:12;30.75;;;5.03;;
4857;SDS011;58975;51.978;8.472;2023-11-19T11:39:20;30.02;;;3.72;;
4857;SDS011;58975;51.978;8.472;2023-11-19T11:44:18;39.25;;;6.28;;
4857;SDS011;58975;51.978;8.472;2023-11-19T11:49:53;27.90;;;3.95;;
4857;SDS011;58975;51.978;8.472;2023-11-19T11:54:50;26.58;;;4.05;;
4857;SDS011;58975;51.978;8.472;2023-11-19T11:59:49;27.27;;;4.15;;
4857;SDS011;58975;51.978;8.472;2023-11-19T12:04:47;25.15;;;4.20;;
4857;SDS011;58975;51.978;8.472;2023-11-19T12:09:51;21.17;;;5.43;;
4857;SDS011;58975;51.978;8.472;2023-11-19T12:15:04;31.95;;;4.15;;
4857;SDS011;58975;51.978;8.472;2023-11-19T12:20:04;25.27;;;4.43;;
4857;SDS011;58975;51.978;8.472;2023-11-19T12:25:05;26.13;;;5.00;;
4857;SDS011;58975;51.978;8.472;2023-11-19T12:35:02;20.50;;;3.42;;
4857;SDS011;58975;51.978;8.472;2023-11-19T12:39:59;24.80;;;4.32;;
4857;SDS011;58975;51.978;8.472;2023-11-19T12:44:59;22.20;;;3.33;;
4857;SDS011;58975;51.978;8.472;2023-11-19T12:49:56;34.13;;;3.88;;
4857;SDS011;58975;51.978;8.472;2023-11-19T12:54:53;19.88;;;4.22;;
4857;SDS011;58975;51.978;8.472;2023-11-19T12:59:56;24.75;;;4.25;;
4857;SDS011;58975;51.978;8.472;2023-11-19T13:04:55;23.10;;;2.92;;
4857;SDS011;58975;51.978;8.472;2023-11-19T13:10:00;28.33;;;5.25;;
4857;SDS011;58975;51.978;8.472;2023-11-19T13:14:58;21.65;;;3.40;;
4857;SDS011;58975;51.978;8.472;2023-11-19T13:19:55;22.73;;;3.22;;
4857;SDS011;58975;51.978;8.472;2023-11-19T13:24:53;17.88;;;3.60;;
4857;SDS011;58975;51.978;8.472;2023-11-19T13:29:49;15.95;;;4.68;;
4857;SDS011;58975;51.978;8.472;2023-11-19T13:34:46;18.85;;;3.28;;
4857;SDS011;58975;51.978;8.472;2023-11-19T13:39:42;24.40;;;4.63;;
4857;SDS011;58975;51.978;8.472;2023-11-19T13:44:39;27.90;;;3.28;;
4857;SDS011;58975;51.978;8.472;2023-11-19T13:49:35;20.13;;;3.42;;
4857;SDS011;58975;51.978;8.472;2023-11-19T13:54:33;22.70;;;4.60;;
4857;SDS011;58975;51.978;8.472;2023-11-19T13:59:32;15.70;;;3.47;;
4857;SDS011;58975;51.978;8.472;2023-11-19T14:04:29;19.50;;;4.13;;
4857;SDS011;58975;51.978;8.472;2023-11-19T14:09:25;29.95;;;4.07;;
4857;SDS011;58975;51.978;8.472;2023-11-19T14:14:22;21.35;;;4.30;;
4857;SDS011;58975;51.978;8.472;2023-11-19T14:19:18;12.23;;;3.20;;
4857;SDS011;58975;51.978;8.472;2023-11-19T14:24:14;20.80;;;4.50;;
4857;SDS011;58975;51.978;8.472;2023-11-19T14:29:11;22.83;;;3.15;;
4857;SDS011;58975;51.978;8.472;2023-11-19T14:34:07;21.58;;;3.88;;
4857;SDS011;58975;51.978;8.472;2023-11-19T14:39:04;15.13;;;2.80;;
4857;SDS011;58975;51.978;8.472;2023-11-19T14:44:00;17.50;;;3.45;;
4857;SDS011;58975;51.978;8.472;2023-11-19T14:48:57;17.25;;;3.22;;
4857;SDS011;58975;51.978;8.472;2023-11-19T14:53:54;15.50;;;3.50;;
4857;SDS011;58975;51.978;8.472;2023-11-19T14:58:50;17.95;;;3.55;;
4857;SDS011;58975;51.978;8.472;2023-11-19T15:03:47;14.45;;;2.25;;
4857;SDS011;58975;51.978;8.472;2023-11-19T15:08:47;17.30;;;3.10;;
4857;SDS011;58975;51.978;8.472;2023-11-19T15:13:43;18.27;;;3.03;;
4857;SDS011;58975;51.978;8.472;2023-11-19T15:18:40;12.93;;;2.80;;
4857;SDS011;58975;51.978;8.472;2023-11-19T15:23:37;18.63;;;3.30;;
4857;SDS011;58975;51.978;8.472;2023-11-19T15:28:34;15.35;;;3.88;;
4857;SDS011;58975;51.978;8.472;2023-11-19T15:33:30;21.23;;;3.33;;
4857;SDS011;58975;51.978;8.472;2023-11-19T15:38:26;18.75;;;3.42;;
4857;SDS011;58975;51.978;8.472;2023-11-19T15:43:23;17.17;;;3.03;;
4857;SDS011;58975;51.978;8.472;2023-11-19T15:48:19;14.57;;;2.50;;
4857;SDS011;58975;51.978;8.472;2023-11-19T15:53:16;22.42;;;3.75;;
4857;SDS011;58975;51.978;8.472;2023-11-19T15:58:14;26.10;;;2.83;;
4857;SDS011;58975;51.978;8.472;2023-11-19T16:03:10;15.35;;;3.00;;
4857;SDS011;58975;51.978;8.472;2023-11-19T16:08:08;30.20;;;4.43;;
4857;SDS011;58975;51.978;8.472;2023-11-19T16:13:06;18.63;;;2.92;;
4857;SDS011;58975;51.978;8.472;2023-11-19T16:18:03;18.65;;;3.10;;
4857;SDS011;58975;51.978;8.472;2023-11-19T16:23:00;18.90;;;4.03;;
4857;SDS011;58975;51.978;8.472;2023-11-19T16:27:57;19.23;;;3.05;;
4857;SDS011;58975;51.978;8.472;2023-11-19T16:32:57;20.05;;;3.30;;
4857;SDS011;58975;51.978;8.472;2023-11-19T16:37:57;18.30;;;3.83;;
4857;SDS011;58975;51.978;8.472;2023-11-19T16:42:53;21.30;;;3.55;;
4857;SDS011;58975;51.978;8.472;2023-11-19T16:47:51;15.63;;;3.60;;
4857;SDS011;58975;51.978;8.472;2023-11-19T16:52:47;26.17;;;3.72;;
4857;SDS011;58975;51.978;8.472;2023-11-19T16:57:44;24.88;;;3.72;;
4857;SDS011;58975;51.978;8.472;2023-11-19T17:02:40;15.77;;;4.30;;
4857;SDS011;58975;51.978;8.472;2023-11-19T17:07:41;21.73;;;3.85;;
4857;SDS011;58975;51.978;8.472;2023-11-19T17:12:37;15.63;;;3.53;;
4857;SDS011;58975;51.978;8.472;2023-11-19T17:17:34;20.33;;;2.97;;
4857;SDS011;58975;51.978;8.472;2023-11-19T17:22:32;23.50;;;4.65;;
4857;SDS011;58975;51.978;8.472;2023-11-19T17:27:33;15.95;;;3.47;;
4857;SDS011;58975;51.978;8.472;2023-11-19T17:32:29;15.38;;;3.53;;
4857;SDS011;58975;51.978;8.472;2023-11-19T17:37:28;16.88;;;3.33;;
4857;SDS011;58975;51.978;8.472;2023-11-19T17:42:25;15.82;;;3.40;;
4857;SDS011;58975;51.978;8.472;2023-11-19T17:47:21;15.20;;;3.30;;
4857;SDS011;58975;51.978;8.472;2023-11-19T17:52:17;15.63;;;3.20;;
4857;SDS011;58975;51.978;8.472;2023-11-19T17:57:16;24.55;;;3.50;;
4857;SDS011;58975;51.978;8.472;2023-11-19T18:02:12;26.00;;;4.95;;
4857;SDS011;58975;51.978;8.472;2023-11-19T18:07:09;15.85;;;4.38;;
4857;SDS011;58975;51.978;8.472;2023-11-19T18:12:05;17.95;;;4.00;;
4857;SDS011;58975;51.978;8.472;2023-11-19T18:17:11;22.20;;;5.13;;
4857;SDS011;58975;51.978;8.472;2023-11-19T18:22:08;24.20;;;4.93;;
4857;SDS011;58975;51.978;8.472;2023-11-19T18:27:04;26.40;;;5.45;;
4857;SDS011;58975;51.978;8.472;2023-11-19T18:32:03;20.35;;;5.32;;
4857;SDS011;58975;51.978;8.472;2023-11-19T18:37:01;15.85;;;4.10;;
4857;SDS011;58975;51.978;8.472;2023-11-19T18:41:57;26.25;;;4.68;;
4857;SDS011;58975;51.978;8.472;2023-11-19T18:46:54;19.65;;;4.53;;
4857;SDS011;58975;51.978;8.472;2023-11-19T18:51:52;19.03;;;4.07;;
4857;SDS011;58975;51.978;8.472;2023-11-19T18:56:48;24.42;;;6.05;;
4857;SDS011;58975;51.978;8.472;2023-11-19T19:01:45;23.10;;;5.85;;
4857;SDS011;58975;51.978;8.472;2023-11-19T19:06:42;19.35;;;4.75;;
4857;SDS011;58975;51.978;8.472;2023-11-19T19:11:38;13.27;;;4.25;;
4857;SDS011;58975;51.978;8.472;2023-11-19T19:16:35;19.52;;;6.45;;
4857;SDS011;58975;51.978;8.472;2023-11-19T19:21:33;21.85;;;6.15;;
4857;SDS011;58975;51.978;8.472;2023-11-19T19:26:29;17.45;;;5.65;;
4857;SDS011;58975;51.978;8.472;2023-11-19T19:31:28;18.77;;;4.35;;
4857;SDS011;58975;51.978;8.472;2023-11-19T19:36:27;14.07;;;5.60;;
4857;SDS011;58975;51.978;8.472;2023-11-19T19:41:28;18.30;;;5.80;;
4857;SDS011;58975;51.978;8.472;2023-11-19T19:46:24;19.05;;;5.57;;
4857;SDS011;58975;51.978;8.472;2023-11-19T19:51:21;18.27;;;6.32;;
4857;SDS011;58975;51.978;8.472;2023-11-19T19:56:18;12.55;;;5.85;;
4857;SDS011;58975;51.978;8.472;2023-11-19T20:01:14;21.33;;;5.95;;
4857;SDS011;58975;51.978;8.472;2023-11-19T20:06:11;16.90;;;5.43;;
4857;SDS011;58975;51.978;8.472;2023-11-19T20:11:08;13.52;;;4.55;;
4857;SDS011;58975;51.978;8.472;2023-11-19T20:16:05;21.10;;;5.20;;
4857;SDS011;58975;51.978;8.472;2023-11-19T20:21:02;18.27;;;4.68;;
4857;SDS011;58975;51.978;8.472;2023-11-19T20:26:04;13.73;;;5.05;;
4857;SDS011;58975;51.978;8.472;2023-11-19T20:31:02;19.88;;;6.53;;
4857;SDS011;58975;51.978;8.472;2023-11-19T20:35:59;15.35;;;5.18;;
4857;SDS011;58975;51.978;8.472;2023-11-19T20:40:55;15.15;;;4.78;;
4857;SDS011;58975;51.978;8.472;2023-11-19T20:45:52;16.17;;;4.03;;
4857;SDS011;58975;51.978;8.472;2023-11-19T20:50:48;22.67;;;3.80;;
4857;SDS011;58975;51.978;8.472;2023-11-19T20:55:45;15.82;;;3.78;;
4857;SDS011;58975;51.978;8.472;2023-11-19T21:00:41;14.60;;;3.60;;
4857;SDS011;58975;51.978;8.472;2023-11-19T21:05:39;11.10;;;2.80;;
4857;SDS011;58975;51.978;8.472;2023-11-19T21:10:36;13.95;;;2.58;;
4857;SDS011;58975;51.978;8.472;2023-11-19T21:15:32;12.40;;;3.55;;
4857;SDS011;58975;51.978;8.472;2023-11-19T21:20:36;12.90;;;3.28;;
4857;SDS011;58975;51.978;8.472;2023-11-19T21:25:33;7.85;;;3.17;;
4857;SDS011;58975;51.978;8.472;2023-11-19T21:30:29;10.63;;;3.15;;
4857;SDS011;58975;51.978;8.472;2023-11-19T21:35:26;6.70;;;2.45;;
4857;SDS011;58975;51.978;8.472;2023-11-19T21:40:23;5.22;;;2.13;;
4857;SDS011;58975;51.978;8.472;2023-11-19T21:45:19;7.55;;;2.42;;
4857;SDS011;58975;51.978;8.472;2023-11-19T21:50:16;4.55;;;1.90;;
4857;SDS011;58975;51.978;8.472;2023-11-19T21:55:12;6.03;;;2.40;;
4857;SDS011;58975;51.978;8.472;2023-11-19T22:00:09;7.97;;;2.40;;
4857;SDS011;58975;51.978;8.472;2023-11-19T22:05:09;5.72;;;1.90;;
4857;SDS011;58975;51.978;8.472;2023-11-19T22:10:06;6.95;;;2.70;;
4857;SDS011;58975;51.978;8.472;2023-11-19T22:15:03;3.60;;;2.00;;
4857;SDS011;58975;51.978;8.472;2023-11-19T22:20:00;5.20;;;2.25;;
4857;SDS011;58975;51.978;8.472;2023-11-19T22:24:56;3.55;;;2.17;;
4857;SDS011;58975;51.978;8.472;2023-11-19T22:29:53;5.63;;;1.67;;
4857;SDS011;58975;51.978;8.472;2023-11-19T22:34:50;4.65;;;1.80;;
4857;SDS011;58975;51.978;8.472;2023-11-19T22:39:46;4.75;;;2.33;;
4857;SDS011;58975;51.978;8.472;2023-11-19T22:44:44;6.87;;;2.27;;
4857;SDS011;58975;51.978;8.472;2023-11-19T22:49:40;3.80;;;2.10;;
4857;SDS011;58975;51.978;8.472;2023-11-19T22:54:37;3.58;;;2.60;;
4857;SDS011;58975;51.978;8.472;2023-11-19T22:59:33;4.38;;;2.63;;
4857;SDS011;58975;51.978;8.472;2023-11-19T23:04:30;10.15;;;3.30;;
4857;SDS011;58975;51.978;8.472;2023-11-19T23:09:26;9.90;;;4.00;;
4857;SDS011;58975;51.978;8.472;2023-11-19T23:14:23;10.00;;;4.80;;
4857;SDS011;58975;51.978;8.472;2023-11-19T23:19:20;9.85;;;5.78;;
4857;SDS011;58975;51.978;8.472;2023-11-19T23:24:16;12.95;;;7.25;;
4857;SDS011;58975;51.978;8.472;2023-11-19T23:29:13;14.38;;;6.75;;
4857;SDS011;58975;51.978;8.472;2023-11-19T23:34:11;14.32;;;7.50;;
4857;SDS011;58975;51.978;8.472;2023-11-19T23:39:08;9.75;;;6.70;;
4857;SDS011;58975;51.978;8.472;2023-11-19T23:44:05;12.50;;;8.32;;
4857;SDS011;58975;51.978;8.472;2023-11-19T23:49:02;11.48;;;6.97;;
4857;SDS011;58975;51.978;8.472;2023-11-19T23:53:59;14.20;;;8.70;;
4857;SDS011;58975;51.978;8.472;2023-11-19T23:58:57;13.40;;;7.10;;
